sensor_id;sensor_type;location;lat;lon;timestamp;P1;durP1;ratioP1;P2;durP2;ratioP2
6941;SDS011;3510;43.200;27.920;2023-05-18T00:02:01;1.13;;;1.05;;
6941;SDS011;3510;43.200;27.920;2023-05-18T00:04:30;5.25;;;1.90;;
6941;SDS011;3510;43.200;27.920;2023-05-18T00:06:58;3.53;;;1.60;;
6941;SDS011;3510;43.200;27.920;2023-05-18T00:09:27;1.77;;;1.15;;
6941;SDS011;3510;43.200;27.920;2023-05-18T00:11:55;2.28;;;0.60;;
6941;SDS011;3510;43.200;27.920;2023-05-18T00:14:23;1.10;;;1.10;;
6941;SDS011;3510;43.200;27.920;2023-05-18T00:16:50;1.42;;;1.30;;
6941;SDS011;3510;43.200;27.920;2023-05-18T00:19:20;1.43;;;1.33;;
6941;SDS011;3510;43.200;27.920;2023-05-18T00:21:48;3.05;;;1.92;;
6941;SDS011;3510;43.200;27.920;2023-05-18T00:24:17;1.17;;;1.07;;
6941;SDS011;3510;43.200;27.920;2023-05-18T00:26:45;2.97;;;1.30;;
6941;SDS011;3510;43.200;27.920;2023-05-18T00:29:13;1.60;;;1.50;;
6941;SDS011;3510;43.200;27.920;2023-05-18T00:31:40;4.43;;;1.10;;
6941;SDS011;3510;43.200;27.920;2023-05-18T00:34:10;1.45;;;1.08;;
6941;SDS011;3510;43.200;27.920;2023-05-18T00:36:39;1.83;;;1.00;;
6941;SDS011;3510;43.200;27.920;2023-05-18T00:39:06;1.77;;;1.67;;
6941;SDS011;3510;43.200;27.920;2023-05-18T00:41:34;1.02;;;1.00;;
6941;SDS011;3510;43.200;27.920;2023-05-18T00:44:01;2.67;;;1.37;;
6941;SDS011;3510;43.200;27.920;2023-05-18T00:46:29;1.15;;;1.08;;
6941;SDS011;3510;43.200;27.920;2023-05-18T00:48:56;0.80;;;0.80;;
6941;SDS011;3510;43.200;27.920;2023-05-18T00:51:31;1.50;;;1.35;;
6941;SDS011;3510;43.200;27.920;2023-05-18T00:54:00;3.40;;;1.38;;
6941;SDS011;3510;43.200;27.920;2023-05-18T00:56:28;2.80;;;1.50;;
6941;SDS011;3510;43.200;27.920;2023-05-18T00:58:58;1.52;;;1.42;;
6941;SDS011;3510;43.200;27.920;2023-05-18T01:01:28;4.20;;;1.42;;
6941;SDS011;3510;43.200;27.920;2023-05-18T01:03:58;3.13;;;1.63;;
6941;SDS011;3510;43.200;27.920;2023-05-18T01:06:26;2.88;;;1.35;;
6941;SDS011;3510;43.200;27.920;2023-05-18T01:08:56;3.50;;;1.40;;
6941;SDS011;3510;43.200;27.920;2023-05-18T01:11:32;5.03;;;1.53;;
6941;SDS011;3510;43.200;27.920;2023-05-18T01:14:08;0.80;;;0.80;;
6941;SDS011;3510;43.200;27.920;2023-05-18T01:16:44;2.35;;;1.40;;
6941;SDS011;3510;43.200;27.920;2023-05-18T01:19:26;0.90;;;0.90;;
6941;SDS011;3510;43.200;27.920;2023-05-18T01:22:12;1.15;;;1.05;;
6941;SDS011;3510;43.200;27.920;2023-05-18T01:24:47;4.75;;;1.75;;
6941;SDS011;3510;43.200;27.920;2023-05-18T01:27:18;3.22;;;1.60;;
6941;SDS011;3510;43.200;27.920;2023-05-18T01:29:49;1.05;;;1.05;;
6941;SDS011;3510;43.200;27.920;2023-05-18T01:32:17;2.38;;;0.80;;
6941;SDS011;3510;43.200;27.920;2023-05-18T01:34:44;2.30;;;1.00;;
6941;SDS011;3510;43.200;27.920;2023-05-18T01:37:11;1.27;;;1.23;;
6941;SDS011;3510;43.200;27.920;2023-05-18T01:39:38;1.55;;;0.80;;
6941;SDS011;3510;43.200;27.920;2023-05-18T01:42:08;2.33;;;1.00;;
6941;SDS011;3510;43.200;27.920;2023-05-18T01:44:40;4.45;;;1.17;;
6941;SDS011;3510;43.200;27.920;2023-05-18T01:47:12;1.30;;;1.20;;
6941;SDS011;3510;43.200;27.920;2023-05-18T01:49:42;1.80;;;1.05;;
6941;SDS011;3510;43.200;27.920;2023-05-18T01:52:15;1.30;;;0.88;;
6941;SDS011;3510;43.200;27.920;2023-05-18T01:54:45;2.42;;;1.30;;
6941;SDS011;3510;43.200;27.920;2023-05-18T01:57:17;2.42;;;1.58;;
6941;SDS011;3510;43.200;27.920;2023-05-18T01:59:48;3.55;;;1.67;;
6941;SDS011;3510;43.200;27.920;2023-05-18T02:02:18;1.92;;;1.20;;
6941;SDS011;3510;43.200;27.920;2023-05-18T02:04:45;1.40;;;1.40;;
6941;SDS011;3510;43.200;27.920;2023-05-18T02:07:13;1.00;;;0.98;;
6941;SDS011;3510;43.200;27.920;2023-05-18T02:09:40;3.13;;;1.75;;
6941;SDS011;3510;43.200;27.920;2023-05-18T02:12:08;1.98;;;1.50;;
6941;SDS011;3510;43.200;27.920;2023-05-18T02:14:35;3.97;;;1.50;;
6941;SDS011;3510;43.200;27.920;2023-05-18T02:17:04;4.18;;;2.03;;
6941;SDS011;3510;43.200;27.920;2023-05-18T02:19:31;9.30;;;1.33;;
6941;SDS011;3510;43.200;27.920;2023-05-18T02:22:02;2.90;;;1.38;;
6941;SDS011;3510;43.200;27.920;2023-05-18T02:24:30;2.40;;;1.70;;
6941;SDS011;3510;43.200;27.920;2023-05-18T02:26:57;1.35;;;1.35;;
6941;SDS011;3510;43.200;27.920;2023-05-18T02:29:25;1.60;;;1.50;;
6941;SDS011;3510;43.200;27.920;2023-05-18T02:31:52;1.55;;;1.45;;
6941;SDS011;3510;43.200;27.920;2023-05-18T02:34:20;1.92;;;1.38;;
6941;SDS011;3510;43.200;27.920;2023-05-18T02:36:48;1.65;;;1.10;;
6941;SDS011;3510;43.200;27.920;2023-05-18T02:39:15;1.48;;;0.85;;
6941;SDS011;3510;43.200;27.920;2023-05-18T02:41:42;1.27;;;1.17;;
6941;SDS011;3510;43.200;27.920;2023-05-18T02:44:09;2.63;;;1.48;;
6941;SDS011;3510;43.200;27.920;2023-05-18T02:46:37;3.50;;;1.65;;
6941;SDS011;3510;43.200;27.920;2023-05-18T02:49:04;2.08;;;1.33;;
6941;SDS011;3510;43.200;27.920;2023-05-18T02:54:14;1.60;;;1.08;;
6941;SDS011;3510;43.200;27.920;2023-05-18T02:56:41;4.82;;;1.30;;
6941;SDS011;3510;43.200;27.920;2023-05-18T02:59:07;3.45;;;1.48;;
6941;SDS011;3510;43.200;27.920;2023-05-18T03:01:36;5.43;;;1.77;;
6941;SDS011;3510;43.200;27.920;2023-05-18T03:04:05;1.48;;;1.10;;
6941;SDS011;3510;43.200;27.920;2023-05-18T03:06:34;2.90;;;1.40;;
6941;SDS011;3510;43.200;27.920;2023-05-18T03:09:03;1.90;;;1.42;;
6941;SDS011;3510;43.200;27.920;2023-05-18T03:11:30;1.52;;;1.42;;
6941;SDS011;3510;43.200;27.920;2023-05-18T03:13:57;1.40;;;1.30;;
6941;SDS011;3510;43.200;27.920;2023-05-18T03:16:24;1.90;;;1.20;;
6941;SDS011;3510;43.200;27.920;2023-05-18T03:18:52;1.73;;;1.58;;
6941;SDS011;3510;43.200;27.920;2023-05-18T03:21:19;3.53;;;1.38;;
6941;SDS011;3510;43.200;27.920;2023-05-18T03:23:47;1.77;;;1.67;;
6941;SDS011;3510;43.200;27.920;2023-05-18T03:26:15;1.98;;;1.30;;
6941;SDS011;3510;43.200;27.920;2023-05-18T03:28:42;3.55;;;1.92;;
6941;SDS011;3510;43.200;27.920;2023-05-18T03:31:09;2.25;;;1.40;;
6941;SDS011;3510;43.200;27.920;2023-05-18T03:33:36;2.35;;;1.40;;
6941;SDS011;3510;43.200;27.920;2023-05-18T03:36:03;5.20;;;1.80;;
6941;SDS011;3510;43.200;27.920;2023-05-18T03:38:30;3.60;;;1.65;;
6941;SDS011;3510;43.200;27.920;2023-05-18T03:40:57;2.03;;;1.63;;
6941;SDS011;3510;43.200;27.920;2023-05-18T03:43:25;1.13;;;1.13;;
6941;SDS011;3510;43.200;27.920;2023-05-18T03:45:53;4.78;;;2.00;;
6941;SDS011;3510;43.200;27.920;2023-05-18T03:48:21;1.80;;;1.70;;
6941;SDS011;3510;43.200;27.920;2023-05-18T03:50:49;2.65;;;1.75;;
6941;SDS011;3510;43.200;27.920;2023-05-18T03:53:16;3.30;;;1.52;;
6941;SDS011;3510;43.200;27.920;2023-05-18T03:55:43;3.28;;;1.35;;
6941;SDS011;3510;43.200;27.920;2023-05-18T03:58:10;1.40;;;1.30;;
6941;SDS011;3510;43.200;27.920;2023-05-18T04:00:38;1.25;;;1.20;;
6941;SDS011;3510;43.200;27.920;2023-05-18T04:03:06;1.92;;;1.83;;
6941;SDS011;3510;43.200;27.920;2023-05-18T04:05:36;2.33;;;1.38;;
6941;SDS011;3510;43.200;27.920;2023-05-18T04:08:03;2.33;;;1.65;;
6941;SDS011;3510;43.200;27.920;2023-05-18T04:10:31;1.20;;;1.20;;
6941;SDS011;3510;43.200;27.920;2023-05-18T04:12:58;5.53;;;1.80;;
6941;SDS011;3510;43.200;27.920;2023-05-18T04:15:25;1.83;;;1.73;;
6941;SDS011;3510;43.200;27.920;2023-05-18T04:17:54;2.00;;;1.77;;
6941;SDS011;3510;43.200;27.920;2023-05-18T04:20:20;1.90;;;1.80;;
6941;SDS011;3510;43.200;27.920;2023-05-18T04:22:47;1.75;;;1.67;;
6941;SDS011;3510;43.200;27.920;2023-05-18T04:25:14;2.00;;;1.83;;
6941;SDS011;3510;43.200;27.920;2023-05-18T04:27:42;2.13;;;1.63;;
6941;SDS011;3510;43.200;27.920;2023-05-18T04:30:10;1.77;;;1.60;;
6941;SDS011;3510;43.200;27.920;2023-05-18T04:32:38;2.28;;;1.75;;
6941;SDS011;3510;43.200;27.920;2023-05-18T04:35:08;7.53;;;2.38;;
6941;SDS011;3510;43.200;27.920;2023-05-18T04:37:36;7.88;;;2.10;;
6941;SDS011;3510;43.200;27.920;2023-05-18T04:40:04;2.00;;;1.90;;
6941;SDS011;3510;43.200;27.920;2023-05-18T04:42:32;2.45;;;2.13;;
6941;SDS011;3510;43.200;27.920;2023-05-18T04:45:00;2.85;;;2.17;;
6941;SDS011;3510;43.200;27.920;2023-05-18T04:47:29;4.45;;;1.90;;
6941;SDS011;3510;43.200;27.920;2023-05-18T04:49:56;2.08;;;1.98;;
6941;SDS011;3510;43.200;27.920;2023-05-18T04:52:25;2.90;;;1.73;;
6941;SDS011;3510;43.200;27.920;2023-05-18T04:54:54;2.28;;;2.13;;
6941;SDS011;3510;43.200;27.920;2023-05-18T04:57:21;1.88;;;1.65;;
6941;SDS011;3510;43.200;27.920;2023-05-18T04:59:48;1.60;;;1.50;;
6941;SDS011;3510;43.200;27.920;2023-05-18T05:02:17;11.05;;;2.40;;
6941;SDS011;3510;43.200;27.920;2023-05-18T05:04:44;2.03;;;1.77;;
6941;SDS011;3510;43.200;27.920;2023-05-18T05:07:12;3.17;;;1.80;;
6941;SDS011;3510;43.200;27.920;2023-05-18T05:09:39;2.20;;;1.88;;
6941;SDS011;3510;43.200;27.920;2023-05-18T05:12:07;2.55;;;2.35;;
6941;SDS011;3510;43.200;27.920;2023-05-18T05:14:35;1.50;;;1.40;;
6941;SDS011;3510;43.200;27.920;2023-05-18T05:17:02;2.67;;;1.40;;
6941;SDS011;3510;43.200;27.920;2023-05-18T05:19:28;2.92;;;2.53;;
6941;SDS011;3510;43.200;27.920;2023-05-18T05:21:55;4.60;;;1.77;;
6941;SDS011;3510;43.200;27.920;2023-05-18T05:24:22;2.00;;;1.58;;
6941;SDS011;3510;43.200;27.920;2023-05-18T05:26:50;1.63;;;1.52;;
6941;SDS011;3510;43.200;27.920;2023-05-18T05:29:17;1.52;;;1.42;;
6941;SDS011;3510;43.200;27.920;2023-05-18T05:31:45;5.47;;;1.58;;
6941;SDS011;3510;43.200;27.920;2023-05-18T05:34:12;3.70;;;1.52;;
6941;SDS011;3510;43.200;27.920;2023-05-18T05:36:39;3.35;;;1.73;;
6941;SDS011;3510;43.200;27.920;2023-05-18T05:39:06;2.15;;;1.75;;
6941;SDS011;3510;43.200;27.920;2023-05-18T05:41:33;2.20;;;2.00;;
6941;SDS011;3510;43.200;27.920;2023-05-18T05:44:01;4.63;;;2.03;;
6941;SDS011;3510;43.200;27.920;2023-05-18T05:46:28;2.25;;;1.80;;
6941;SDS011;3510;43.200;27.920;2023-05-18T05:48:55;2.35;;;2.00;;
6941;SDS011;3510;43.200;27.920;2023-05-18T05:51:22;1.95;;;1.67;;
6941;SDS011;3510;43.200;27.920;2023-05-18T05:53:48;2.53;;;1.98;;
6941;SDS011;3510;43.200;27.920;2023-05-18T05:56:15;4.15;;;2.10;;
6941;SDS011;3510;43.200;27.920;2023-05-18T05:58:42;2.80;;;2.05;;
6941;SDS011;3510;43.200;27.920;2023-05-18T06:01:10;2.38;;;1.85;;
6941;SDS011;3510;43.200;27.920;2023-05-18T06:03:37;2.13;;;1.38;;
6941;SDS011;3510;43.200;27.920;2023-05-18T06:06:04;2.55;;;2.13;;
6941;SDS011;3510;43.200;27.920;2023-05-18T06:08:32;5.57;;;1.70;;
6941;SDS011;3510;43.200;27.920;2023-05-18T06:10:59;1.80;;;1.70;;
6941;SDS011;3510;43.200;27.920;2023-05-18T06:13:25;3.13;;;2.05;;
6941;SDS011;3510;43.200;27.920;2023-05-18T06:16:01;6.32;;;1.90;;
6941;SDS011;3510;43.200;27.920;2023-05-18T06:18:29;2.60;;;1.92;;
6941;SDS011;3510;43.200;27.920;2023-05-18T06:20:59;2.90;;;1.92;;
6941;SDS011;3510;43.200;27.920;2023-05-18T06:23:29;2.10;;;2.00;;
6941;SDS011;3510;43.200;27.920;2023-05-18T06:25:57;5.68;;;2.22;;
6941;SDS011;3510;43.200;27.920;2023-05-18T06:28:24;3.35;;;2.30;;
6941;SDS011;3510;43.200;27.920;2023-05-18T06:30:51;3.53;;;1.90;;
6941;SDS011;3510;43.200;27.920;2023-05-18T06:33:18;3.53;;;1.88;;
6941;SDS011;3510;43.200;27.920;2023-05-18T06:35:49;2.30;;;2.10;;
6941;SDS011;3510;43.200;27.920;2023-05-18T06:38:16;3.53;;;2.13;;
6941;SDS011;3510;43.200;27.920;2023-05-18T06:40:43;3.22;;;1.63;;
6941;SDS011;3510;43.200;27.920;2023-05-18T06:45:45;2.80;;;2.08;;
6941;SDS011;3510;43.200;27.920;2023-05-18T06:48:13;3.38;;;2.05;;
6941;SDS011;3510;43.200;27.920;2023-05-18T06:50:40;4.32;;;1.83;;
6941;SDS011;3510;43.200;27.920;2023-05-18T06:53:11;2.08;;;1.90;;
6941;SDS011;3510;43.200;27.920;2023-05-18T06:55:38;3.03;;;2.17;;
6941;SDS011;3510;43.200;27.920;2023-05-18T06:58:05;2.97;;;2.33;;
6941;SDS011;3510;43.200;27.920;2023-05-18T07:00:32;2.03;;;1.92;;
6941;SDS011;3510;43.200;27.920;2023-05-18T07:05:52;1.88;;;1.77;;
6941;SDS011;3510;43.200;27.920;2023-05-18T07:08:45;2.25;;;2.15;;
6941;SDS011;3510;43.200;27.920;2023-05-18T07:11:26;2.75;;;2.15;;
6941;SDS011;3510;43.200;27.920;2023-05-18T07:16:28;1.95;;;1.80;;
6941;SDS011;3510;43.200;27.920;2023-05-18T07:18:55;1.98;;;1.88;;
6941;SDS011;3510;43.200;27.920;2023-05-18T07:21:23;2.70;;;1.95;;
6941;SDS011;3510;43.200;27.920;2023-05-18T07:26:33;2.75;;;2.05;;
6941;SDS011;3510;43.200;27.920;2023-05-18T07:29:02;2.42;;;2.22;;
6941;SDS011;3510;43.200;27.920;2023-05-18T07:31:32;2.40;;;2.15;;
6941;SDS011;3510;43.200;27.920;2023-05-18T07:34:03;4.68;;;2.47;;
6941;SDS011;3510;43.200;27.920;2023-05-18T07:36:31;2.47;;;2.25;;
6941;SDS011;3510;43.200;27.920;2023-05-18T07:38:58;3.42;;;2.30;;
6941;SDS011;3510;43.200;27.920;2023-05-18T07:41:25;5.18;;;2.30;;
6941;SDS011;3510;43.200;27.920;2023-05-18T07:43:57;2.47;;;2.38;;
6941;SDS011;3510;43.200;27.920;2023-05-18T07:46:23;2.40;;;2.20;;
6941;SDS011;3510;43.200;27.920;2023-05-18T07:48:50;2.20;;;2.08;;
6941;SDS011;3510;43.200;27.920;2023-05-18T07:51:18;2.83;;;2.63;;
6941;SDS011;3510;43.200;27.920;2023-05-18T07:53:45;2.97;;;2.67;;
6941;SDS011;3510;43.200;27.920;2023-05-18T07:56:26;2.65;;;2.45;;
6941;SDS011;3510;43.200;27.920;2023-05-18T07:58:58;2.08;;;1.98;;
6941;SDS011;3510;43.200;27.920;2023-05-18T08:01:26;2.90;;;2.38;;
6941;SDS011;3510;43.200;27.920;2023-05-18T08:03:54;2.47;;;2.33;;
6941;SDS011;3510;43.200;27.920;2023-05-18T08:06:23;8.18;;;2.78;;
6941;SDS011;3510;43.200;27.920;2023-05-18T08:08:50;2.97;;;2.78;;
6941;SDS011;3510;43.200;27.920;2023-05-18T08:11:20;4.80;;;3.22;;
6941;SDS011;3510;43.200;27.920;2023-05-18T08:13:49;6.35;;;3.22;;
6941;SDS011;3510;43.200;27.920;2023-05-18T08:16:18;3.28;;;2.88;;
6941;SDS011;3510;43.200;27.920;2023-05-18T08:18:46;7.25;;;3.72;;
6941;SDS011;3510;43.200;27.920;2023-05-18T08:21:13;6.50;;;2.78;;
6941;SDS011;3510;43.200;27.920;2023-05-18T08:23:40;4.85;;;3.47;;
6941;SDS011;3510;43.200;27.920;2023-05-18T08:26:09;5.38;;;3.15;;
6941;SDS011;3510;43.200;27.920;2023-05-18T08:28:37;3.75;;;3.15;;
6941;SDS011;3510;43.200;27.920;2023-05-18T08:31:06;3.25;;;3.00;;
6941;SDS011;3510;43.200;27.920;2023-05-18T08:33:35;3.42;;;3.22;;
6941;SDS011;3510;43.200;27.920;2023-05-18T08:36:02;3.40;;;3.08;;
6941;SDS011;3510;43.200;27.920;2023-05-18T08:38:30;3.65;;;3.35;;
6941;SDS011;3510;43.200;27.920;2023-05-18T08:41:12;5.00;;;3.03;;
6941;SDS011;3510;43.200;27.920;2023-05-18T08:43:47;8.02;;;3.67;;
6941;SDS011;3510;43.200;27.920;2023-05-18T08:46:24;4.13;;;3.13;;
6941;SDS011;3510;43.200;27.920;2023-05-18T08:48:57;5.88;;;3.53;;
6941;SDS011;3510;43.200;27.920;2023-05-18T08:51:27;4.50;;;3.88;;
6941;SDS011;3510;43.200;27.920;2023-05-18T08:53:56;4.53;;;3.63;;
6941;SDS011;3510;43.200;27.920;2023-05-18T08:56:38;4.13;;;3.72;;
6941;SDS011;3510;43.200;27.920;2023-05-18T08:59:22;5.35;;;3.78;;
6941;SDS011;3510;43.200;27.920;2023-05-18T09:02:04;7.82;;;4.80;;
6941;SDS011;3510;43.200;27.920;2023-05-18T09:43:00;7.25;;;6.18;;
6941;SDS011;3510;43.200;27.920;2023-05-18T09:50:57;6.95;;;6.25;;
6941;SDS011;3510;43.200;27.920;2023-05-18T09:53:39;5.53;;;4.85;;
6941;SDS011;3510;43.200;27.920;2023-05-18T09:56:21;6.50;;;4.75;;
6941;SDS011;3510;43.200;27.920;2023-05-18T09:59:14;12.52;;;5.03;;
6941;SDS011;3510;43.200;27.920;2023-05-18T10:01:54;6.65;;;5.20;;
6941;SDS011;3510;43.200;27.920;2023-05-18T10:04:22;5.03;;;4.53;;
6941;SDS011;3510;43.200;27.920;2023-05-18T10:07:01;6.95;;;4.10;;
6941;SDS011;3510;43.200;27.920;2023-05-18T10:09:29;4.85;;;4.35;;
6941;SDS011;3510;43.200;27.920;2023-05-18T10:11:56;4.20;;;3.90;;
6941;SDS011;3510;43.200;27.920;2023-05-18T10:14:26;4.07;;;3.63;;
6941;SDS011;3510;43.200;27.920;2023-05-18T10:17:02;4.60;;;4.18;;
6941;SDS011;3510;43.200;27.920;2023-05-18T10:19:30;4.68;;;4.25;;
6941;SDS011;3510;43.200;27.920;2023-05-18T10:22:06;4.80;;;4.10;;
6941;SDS011;3510;43.200;27.920;2023-05-18T10:24:34;5.68;;;5.13;;
6941;SDS011;3510;43.200;27.920;2023-05-18T10:27:08;5.85;;;4.60;;
6941;SDS011;3510;43.200;27.920;2023-05-18T10:29:37;2.63;;;2.38;;
6941;SDS011;3510;43.200;27.920;2023-05-18T10:32:05;5.75;;;5.22;;
6941;SDS011;3510;43.200;27.920;2023-05-18T10:34:48;5.18;;;4.22;;
6941;SDS011;3510;43.200;27.920;2023-05-18T10:37:18;6.30;;;5.05;;
6941;SDS011;3510;43.200;27.920;2023-05-18T10:39:54;4.07;;;3.78;;
6941;SDS011;3510;43.200;27.920;2023-05-18T10:42:24;6.32;;;3.45;;
6941;SDS011;3510;43.200;27.920;2023-05-18T10:44:54;8.07;;;4.53;;
6941;SDS011;3510;43.200;27.920;2023-05-18T10:47:26;3.85;;;3.55;;
6941;SDS011;3510;43.200;27.920;2023-05-18T10:49:56;4.53;;;4.13;;
6941;SDS011;3510;43.200;27.920;2023-05-18T10:52:26;4.85;;;4.45;;
6941;SDS011;3510;43.200;27.920;2023-05-18T10:54:57;4.75;;;4.35;;
6941;SDS011;3510;43.200;27.920;2023-05-18T10:57:26;4.93;;;4.53;;
6941;SDS011;3510;43.200;27.920;2023-05-18T11:07:58;9.88;;;7.57;;
6941;SDS011;3510;43.200;27.920;2023-05-18T11:10:32;7.57;;;6.55;;
6941;SDS011;3510;43.200;27.920;2023-05-18T11:13:03;7.75;;;7.07;;
6941;SDS011;3510;43.200;27.920;2023-05-18T11:18:33;11.70;;;8.77;;
6941;SDS011;3510;43.200;27.920;2023-05-18T11:26:43;16.75;;;11.48;;
6941;SDS011;3510;43.200;27.920;2023-05-18T11:29:17;14.13;;;11.30;;
6941;SDS011;3510;43.200;27.920;2023-05-18T11:31:46;18.35;;;12.95;;
6941;SDS011;3510;43.200;27.920;2023-05-18T11:37:15;24.63;;;14.15;;
6941;SDS011;3510;43.200;27.920;2023-05-18T11:39:52;23.10;;;14.77;;
6941;SDS011;3510;43.200;27.920;2023-05-18T11:42:30;25.33;;;15.75;;
6941;SDS011;3510;43.200;27.920;2023-05-18T11:45:04;25.67;;;14.88;;
6941;SDS011;3510;43.200;27.920;2023-05-18T11:47:32;19.42;;;14.20;;
6941;SDS011;3510;43.200;27.920;2023-05-18T11:50:06;22.10;;;14.20;;
6941;SDS011;3510;43.200;27.920;2023-05-18T12:00:44;25.52;;;12.23;;
6941;SDS011;3510;43.200;27.920;2023-05-18T12:03:11;6.63;;;5.32;;
6941;SDS011;3510;43.200;27.920;2023-05-18T12:05:41;6.68;;;4.40;;
6941;SDS011;3510;43.200;27.920;2023-05-18T12:08:14;5.20;;;4.50;;
6941;SDS011;3510;43.200;27.920;2023-05-18T12:10:43;4.75;;;4.28;;
6941;SDS011;3510;43.200;27.920;2023-05-18T12:13:11;12.75;;;5.55;;
6941;SDS011;3510;43.200;27.920;2023-05-18T12:15:38;6.40;;;5.20;;
6941;SDS011;3510;43.200;27.920;2023-05-18T12:18:09;11.00;;;5.20;;
6941;SDS011;3510;43.200;27.920;2023-05-18T12:20:37;9.65;;;6.60;;
6941;SDS011;3510;43.200;27.920;2023-05-18T12:23:05;19.17;;;6.63;;
6941;SDS011;3510;43.200;27.920;2023-05-18T12:25:32;5.15;;;4.75;;
6941;SDS011;3510;43.200;27.920;2023-05-18T12:27:59;10.38;;;5.85;;
6941;SDS011;3510;43.200;27.920;2023-05-18T12:30:27;10.18;;;6.05;;
6941;SDS011;3510;43.200;27.920;2023-05-18T12:32:59;9.05;;;6.85;;
6941;SDS011;3510;43.200;27.920;2023-05-18T12:38:04;21.17;;;6.70;;
6941;SDS011;3510;43.200;27.920;2023-05-18T12:40:33;13.10;;;5.13;;
6941;SDS011;3510;43.200;27.920;2023-05-18T12:43:08;8.55;;;5.10;;
6941;SDS011;3510;43.200;27.920;2023-05-18T12:45:35;14.88;;;5.88;;
6941;SDS011;3510;43.200;27.920;2023-05-18T12:48:03;12.43;;;6.10;;
6941;SDS011;3510;43.200;27.920;2023-05-18T12:50:44;9.75;;;5.63;;
6941;SDS011;3510;43.200;27.920;2023-05-18T12:53:15;7.35;;;4.93;;
6941;SDS011;3510;43.200;27.920;2023-05-18T12:55:43;7.07;;;5.38;;
6941;SDS011;3510;43.200;27.920;2023-05-18T12:58:12;7.28;;;5.75;;
6941;SDS011;3510;43.200;27.920;2023-05-18T13:00:42;7.93;;;5.15;;
6941;SDS011;3510;43.200;27.920;2023-05-18T13:03:11;6.32;;;4.55;;
6941;SDS011;3510;43.200;27.920;2023-05-18T13:05:42;7.57;;;5.10;;
6941;SDS011;3510;43.200;27.920;2023-05-18T13:08:14;12.07;;;5.53;;
6941;SDS011;3510;43.200;27.920;2023-05-18T13:10:44;14.35;;;5.40;;
6941;SDS011;3510;43.200;27.920;2023-05-18T13:13:27;14.25;;;5.35;;
6941;SDS011;3510;43.200;27.920;2023-05-18T13:15:55;10.57;;;6.93;;
6941;SDS011;3510;43.200;27.920;2023-05-18T13:18:27;16.25;;;5.40;;
6941;SDS011;3510;43.200;27.920;2023-05-18T13:20:55;10.68;;;5.40;;
6941;SDS011;3510;43.200;27.920;2023-05-18T13:23:33;9.38;;;5.43;;
6941;SDS011;3510;43.200;27.920;2023-05-18T13:26:00;6.57;;;5.13;;
6941;SDS011;3510;43.200;27.920;2023-05-18T13:28:27;6.13;;;5.00;;
6941;SDS011;3510;43.200;27.920;2023-05-18T13:30:55;7.30;;;5.10;;
6941;SDS011;3510;43.200;27.920;2023-05-18T13:33:22;6.88;;;6.00;;
6941;SDS011;3510;43.200;27.920;2023-05-18T13:35:50;10.35;;;6.30;;
6941;SDS011;3510;43.200;27.920;2023-05-18T13:38:18;16.52;;;7.53;;
6941;SDS011;3510;43.200;27.920;2023-05-18T13:41:01;5.95;;;5.45;;
6941;SDS011;3510;43.200;27.920;2023-05-18T13:43:30;6.25;;;5.63;;
6941;SDS011;3510;43.200;27.920;2023-05-18T13:45:59;8.25;;;5.10;;
6941;SDS011;3510;43.200;27.920;2023-05-18T13:48:28;6.88;;;5.00;;
6941;SDS011;3510;43.200;27.920;2023-05-18T13:50:57;13.02;;;5.32;;
6941;SDS011;3510;43.200;27.920;2023-05-18T13:53:25;11.68;;;5.35;;
6941;SDS011;3510;43.200;27.920;2023-05-18T13:55:58;10.25;;;5.47;;
6941;SDS011;3510;43.200;27.920;2023-05-18T13:58:26;12.15;;;6.97;;
6941;SDS011;3510;43.200;27.920;2023-05-18T14:01:21;12.05;;;6.70;;
6941;SDS011;3510;43.200;27.920;2023-05-18T14:03:49;7.75;;;5.03;;
6941;SDS011;3510;43.200;27.920;2023-05-18T14:06:16;8.82;;;5.63;;
6941;SDS011;3510;43.200;27.920;2023-05-18T14:08:45;7.70;;;5.78;;
6941;SDS011;3510;43.200;27.920;2023-05-18T14:11:14;5.70;;;5.20;;
6941;SDS011;3510;43.200;27.920;2023-05-18T14:13:45;13.45;;;7.85;;
6941;SDS011;3510;43.200;27.920;2023-05-18T14:16:13;8.93;;;5.43;;
6941;SDS011;3510;43.200;27.920;2023-05-18T14:18:41;7.32;;;5.80;;
6941;SDS011;3510;43.200;27.920;2023-05-18T14:21:09;6.25;;;5.57;;
6941;SDS011;3510;43.200;27.920;2023-05-18T14:23:37;7.82;;;6.25;;
6941;SDS011;3510;43.200;27.920;2023-05-18T14:26:05;20.30;;;6.22;;
6941;SDS011;3510;43.200;27.920;2023-05-18T14:31:20;6.05;;;5.40;;
6941;SDS011;3510;43.200;27.920;2023-05-18T14:33:47;7.28;;;5.97;;
6941;SDS011;3510;43.200;27.920;2023-05-18T14:36:14;11.10;;;6.05;;
6941;SDS011;3510;43.200;27.920;2023-05-18T14:38:42;11.82;;;6.43;;
6941;SDS011;3510;43.200;27.920;2023-05-18T14:41:10;5.43;;;4.97;;
6941;SDS011;3510;43.200;27.920;2023-05-18T14:43:37;7.22;;;6.45;;
6941;SDS011;3510;43.200;27.920;2023-05-18T14:46:05;7.75;;;6.30;;
6941;SDS011;3510;43.200;27.920;2023-05-18T14:48:32;9.52;;;6.65;;
6941;SDS011;3510;43.200;27.920;2023-05-18T14:50:59;7.05;;;6.45;;
6941;SDS011;3510;43.200;27.920;2023-05-18T14:53:25;8.43;;;5.82;;
6941;SDS011;3510;43.200;27.920;2023-05-18T14:55:52;9.68;;;7.05;;
6941;SDS011;3510;43.200;27.920;2023-05-18T14:58:20;7.90;;;5.85;;
6941;SDS011;3510;43.200;27.920;2023-05-18T15:00:47;7.03;;;6.32;;
6941;SDS011;3510;43.200;27.920;2023-05-18T15:03:16;11.40;;;6.05;;
6941;SDS011;3510;43.200;27.920;2023-05-18T15:05:44;9.82;;;6.05;;
6941;SDS011;3510;43.200;27.920;2023-05-18T15:08:11;6.60;;;5.80;;
6941;SDS011;3510;43.200;27.920;2023-05-18T15:10:38;6.55;;;5.95;;
6941;SDS011;3510;43.200;27.920;2023-05-18T15:13:05;7.28;;;5.50;;
6941;SDS011;3510;43.200;27.920;2023-05-18T15:15:32;8.38;;;5.68;;
6941;SDS011;3510;43.200;27.920;2023-05-18T15:17:59;6.57;;;5.68;;
6941;SDS011;3510;43.200;27.920;2023-05-18T15:20:27;7.03;;;5.50;;
6941;SDS011;3510;43.200;27.920;2023-05-18T15:22:54;8.70;;;5.93;;
6941;SDS011;3510;43.200;27.920;2023-05-18T15:25:20;5.68;;;5.20;;
6941;SDS011;3510;43.200;27.920;2023-05-18T15:27:48;6.32;;;5.20;;
6941;SDS011;3510;43.200;27.920;2023-05-18T15:30:17;7.10;;;4.82;;
6941;SDS011;3510;43.200;27.920;2023-05-18T15:32:44;5.05;;;4.65;;
6941;SDS011;3510;43.200;27.920;2023-05-18T15:35:12;10.23;;;4.88;;
6941;SDS011;3510;43.200;27.920;2023-05-18T15:37:41;5.78;;;5.25;;
6941;SDS011;3510;43.200;27.920;2023-05-18T15:40:09;8.48;;;5.30;;
6941;SDS011;3510;43.200;27.920;2023-05-18T15:42:36;7.85;;;6.22;;
6941;SDS011;3510;43.200;27.920;2023-05-18T15:45:03;10.00;;;5.60;;
6941;SDS011;3510;43.200;27.920;2023-05-18T15:47:30;11.82;;;6.30;;
6941;SDS011;3510;43.200;27.920;2023-05-18T15:49:57;6.32;;;5.85;;
6941;SDS011;3510;43.200;27.920;2023-05-18T15:52:24;13.10;;;5.78;;
6941;SDS011;3510;43.200;27.920;2023-05-18T15:54:53;5.57;;;4.68;;
6941;SDS011;3510;43.200;27.920;2023-05-18T15:57:20;8.07;;;5.13;;
6941;SDS011;3510;43.200;27.920;2023-05-18T15:59:47;8.40;;;5.60;;
6941;SDS011;3510;43.200;27.920;2023-05-18T16:02:14;11.32;;;5.72;;
6941;SDS011;3510;43.200;27.920;2023-05-18T16:04:41;6.53;;;5.10;;
6941;SDS011;3510;43.200;27.920;2023-05-18T16:07:08;7.65;;;5.30;;
6941;SDS011;3510;43.200;27.920;2023-05-18T16:09:35;6.55;;;5.65;;
6941;SDS011;3510;43.200;27.920;2023-05-18T16:12:03;7.28;;;5.30;;
6941;SDS011;3510;43.200;27.920;2023-05-18T16:14:32;9.05;;;5.43;;
6941;SDS011;3510;43.200;27.920;2023-05-18T16:16:58;6.93;;;6.22;;
6941;SDS011;3510;43.200;27.920;2023-05-18T16:19:25;8.70;;;5.40;;
6941;SDS011;3510;43.200;27.920;2023-05-18T16:21:52;7.95;;;5.15;;
6941;SDS011;3510;43.200;27.920;2023-05-18T16:24:20;7.55;;;5.22;;
6941;SDS011;3510;43.200;27.920;2023-05-18T16:26:47;9.90;;;5.85;;
6941;SDS011;3510;43.200;27.920;2023-05-18T16:29:15;7.07;;;6.05;;
6941;SDS011;3510;43.200;27.920;2023-05-18T16:31:42;8.80;;;5.13;;
6941;SDS011;3510;43.200;27.920;2023-05-18T16:34:09;9.65;;;5.97;;
6941;SDS011;3510;43.200;27.920;2023-05-18T16:36:36;7.85;;;6.03;;
6941;SDS011;3510;43.200;27.920;2023-05-18T16:39:03;11.07;;;5.80;;
6941;SDS011;3510;43.200;27.920;2023-05-18T16:41:31;14.63;;;6.40;;
6941;SDS011;3510;43.200;27.920;2023-05-18T16:43:58;12.00;;;6.78;;